sensor_id;sensor_type;location;lat;lon;timestamp;P1;durP1;ratioP1;P2;durP2;ratioP2
26953;SDS011;14508;50.924;11.600;2023-06-26T00:01:46;7.25;;;4.15;;
26953;SDS011;14508;50.924;11.600;2023-06-26T00:04:18;9.00;;;4.57;;
26953;SDS011;14508;50.924;11.600;2023-06-26T00:06:48;11.50;;;5.00;;
26953;SDS011;14508;50.924;11.600;2023-06-26T00:09:18;6.05;;;4.28;;
26953;SDS011;14508;50.924;11.600;2023-06-26T00:11:50;5.85;;;4.00;;
26953;SDS011;14508;50.924;11.600;2023-06-26T00:14:22;7.22;;;4.55;;
26953;SDS011;14508;50.924;11.600;2023-06-26T00:16:57;8.18;;;4.18;;
26953;SDS011;14508;50.924;11.600;2023-06-26T00:19:29;7.72;;;4.57;;
26953;SDS011;14508;50.924;11.600;2023-06-26T00:22:00;7.22;;;4.70;;
26953;SDS011;14508;50.924;11.600;2023-06-26T00:24:31;7.00;;;4.65;;
26953;SDS011;14508;50.924;11.600;2023-06-26T00:27:02;6.53;;;4.53;;
26953;SDS011;14508;50.924;11.600;2023-06-26T00:29:34;7.45;;;4.60;;
26953;SDS011;14508;50.924;11.600;2023-06-26T00:32:13;6.75;;;4.55;;
26953;SDS011;14508;50.924;11.600;2023-06-26T00:34:46;9.18;;;4.47;;
26953;SDS011;14508;50.924;11.600;2023-06-26T00:37:16;7.88;;;5.18;;
26953;SDS011;14508;50.924;11.600;2023-06-26T00:39:46;8.13;;;4.90;;
26953;SDS011;14508;50.924;11.600;2023-06-26T00:42:18;6.75;;;4.47;;
26953;SDS011;14508;50.924;11.600;2023-06-26T00:44:47;7.07;;;4.60;;
26953;SDS011;14508;50.924;11.600;2023-06-26T00:47:17;6.15;;;4.30;;
26953;SDS011;14508;50.924;11.600;2023-06-26T00:49:47;8.88;;;4.82;;
26953;SDS011;14508;50.924;11.600;2023-06-26T00:52:16;6.88;;;4.63;;
26953;SDS011;14508;50.924;11.600;2023-06-26T00:54:47;6.65;;;4.30;;
26953;SDS011;14508;50.924;11.600;2023-06-26T00:57:19;9.52;;;5.20;;
26953;SDS011;14508;50.924;11.600;2023-06-26T00:59:48;8.50;;;4.85;;
26953;SDS011;14508;50.924;11.600;2023-06-26T01:02:25;12.20;;;4.50;;
26953;SDS011;14508;50.924;11.600;2023-06-26T01:05:01;8.88;;;5.05;;
26953;SDS011;14508;50.924;11.600;2023-06-26T01:07:34;7.95;;;5.80;;
26953;SDS011;14508;50.924;11.600;2023-06-26T01:10:11;10.18;;;4.88;;
26953;SDS011;14508;50.924;11.600;2023-06-26T01:12:45;8.65;;;4.97;;
26953;SDS011;14508;50.924;11.600;2023-06-26T01:15:14;8.77;;;5.35;;
26953;SDS011;14508;50.924;11.600;2023-06-26T01:17:46;15.30;;;6.00;;
26953;SDS011;14508;50.924;11.600;2023-06-26T01:20:18;8.50;;;4.55;;
26953;SDS011;14508;50.924;11.600;2023-06-26T01:23:03;8.02;;;5.25;;
26953;SDS011;14508;50.924;11.600;2023-06-26T01:25:40;8.60;;;5.68;;
26953;SDS011;14508;50.924;11.600;2023-06-26T01:28:20;9.85;;;4.97;;
26953;SDS011;14508;50.924;11.600;2023-06-26T01:30:52;8.52;;;4.85;;
26953;SDS011;14508;50.924;11.600;2023-06-26T01:33:23;10.10;;;4.85;;
26953;SDS011;14508;50.924;11.600;2023-06-26T01:35:57;11.73;;;5.23;;
26953;SDS011;14508;50.924;11.600;2023-06-26T01:38:26;6.97;;;4.60;;
26953;SDS011;14508;50.924;11.600;2023-06-26T01:40:56;10.60;;;5.22;;
26953;SDS011;14508;50.924;11.600;2023-06-26T01:43:31;9.55;;;4.70;;
26953;SDS011;14508;50.924;11.600;2023-06-26T01:46:18;10.80;;;5.53;;
26953;SDS011;14508;50.924;11.600;2023-06-26T01:48:55;10.75;;;5.47;;
26953;SDS011;14508;50.924;11.600;2023-06-26T01:51:30;9.50;;;5.53;;
26953;SDS011;14508;50.924;11.600;2023-06-26T01:54:07;7.63;;;4.53;;
26953;SDS011;14508;50.924;11.600;2023-06-26T01:56:48;8.25;;;5.22;;
26953;SDS011;14508;50.924;11.600;2023-06-26T01:59:25;10.88;;;4.88;;
26953;SDS011;14508;50.924;11.600;2023-06-26T02:01:57;9.73;;;5.70;;
26953;SDS011;14508;50.924;11.600;2023-06-26T02:04:31;8.32;;;4.97;;
26953;SDS011;14508;50.924;11.600;2023-06-26T02:07:01;7.72;;;5.10;;
26953;SDS011;14508;50.924;11.600;2023-06-26T02:09:33;9.00;;;5.70;;
26953;SDS011;14508;50.924;11.600;2023-06-26T02:12:06;7.45;;;5.18;;
26953;SDS011;14508;50.924;11.600;2023-06-26T02:14:37;10.77;;;4.97;;
26953;SDS011;14508;50.924;11.600;2023-06-26T02:17:06;7.95;;;4.85;;
26953;SDS011;14508;50.924;11.600;2023-06-26T02:19:41;7.10;;;5.25;;
26953;SDS011;14508;50.924;11.600;2023-06-26T02:22:14;11.90;;;5.65;;
26953;SDS011;14508;50.924;11.600;2023-06-26T02:24:45;12.68;;;5.15;;
26953;SDS011;14508;50.924;11.600;2023-06-26T02:27:14;7.22;;;5.13;;
26953;SDS011;14508;50.924;11.600;2023-06-26T02:29:44;11.32;;;5.43;;
26953;SDS011;14508;50.924;11.600;2023-06-26T02:32:15;15.80;;;5.22;;
26953;SDS011;14508;50.924;11.600;2023-06-26T02:34:49;10.32;;;5.82;;
26953;SDS011;14508;50.924;11.600;2023-06-26T02:37:19;12.35;;;5.57;;
26953;SDS011;14508;50.924;11.600;2023-06-26T02:39:48;11.00;;;5.25;;
26953;SDS011;14508;50.924;11.600;2023-06-26T02:42:20;9.73;;;5.43;;
26953;SDS011;14508;50.924;11.600;2023-06-26T02:44:52;11.48;;;5.50;;
26953;SDS011;14508;50.924;11.600;2023-06-26T02:47:23;7.85;;;5.13;;
26953;SDS011;14508;50.924;11.600;2023-06-26T02:49:52;8.70;;;5.75;;
26953;SDS011;14508;50.924;11.600;2023-06-26T02:52:23;9.98;;;5.88;;
26953;SDS011;14508;50.924;11.600;2023-06-26T02:54:53;9.80;;;5.75;;
26953;SDS011;14508;50.924;11.600;2023-06-26T02:57:25;10.85;;;6.45;;
26953;SDS011;14508;50.924;11.600;2023-06-26T02:59:57;12.13;;;5.95;;
26953;SDS011;14508;50.924;11.600;2023-06-26T03:02:30;10.00;;;5.97;;
26953;SDS011;14508;50.924;11.600;2023-06-26T03:05:02;9.43;;;5.57;;
26953;SDS011;14508;50.924;11.600;2023-06-26T03:07:31;10.43;;;5.53;;
26953;SDS011;14508;50.924;11.600;2023-06-26T03:10:00;9.60;;;5.95;;
26953;SDS011;14508;50.924;11.600;2023-06-26T03:12:29;10.93;;;6.60;;
26953;SDS011;14508;50.924;11.600;2023-06-26T03:15:02;13.57;;;6.47;;
26953;SDS011;14508;50.924;11.600;2023-06-26T03:17:32;9.40;;;5.95;;
26953;SDS011;14508;50.924;11.600;2023-06-26T03:20:07;9.80;;;5.35;;
26953;SDS011;14508;50.924;11.600;2023-06-26T03:22:54;11.77;;;5.72;;
26953;SDS011;14508;50.924;11.600;2023-06-26T03:25:23;10.85;;;5.78;;
26953;SDS011;14508;50.924;11.600;2023-06-26T03:28:20;9.45;;;5.78;;
26953;SDS011;14508;50.924;11.600;2023-06-26T03:30:50;8.85;;;5.60;;
26953;SDS011;14508;50.924;11.600;2023-06-26T03:33:22;10.15;;;6.22;;
26953;SDS011;14508;50.924;11.600;2023-06-26T03:35:52;10.40;;;5.75;;
26953;SDS011;14508;50.924;11.600;2023-06-26T03:38:22;9.32;;;5.93;;
26953;SDS011;14508;50.924;11.600;2023-06-26T03:40:55;13.02;;;5.28;;
26953;SDS011;14508;50.924;11.600;2023-06-26T03:43:24;10.27;;;6.10;;
26953;SDS011;14508;50.924;11.600;2023-06-26T03:46:10;12.73;;;5.73;;
26953;SDS011;14508;50.924;11.600;2023-06-26T03:48:39;10.25;;;5.43;;
26953;SDS011;14508;50.924;11.600;2023-06-26T03:51:08;11.52;;;6.20;;
26953;SDS011;14508;50.924;11.600;2023-06-26T03:53:41;11.63;;;5.80;;
26953;SDS011;14508;50.924;11.600;2023-06-26T03:56:10;9.77;;;6.30;;
26953;SDS011;14508;50.924;11.600;2023-06-26T03:58:41;11.50;;;6.60;;
26953;SDS011;14508;50.924;11.600;2023-06-26T04:01:13;12.25;;;7.05;;
26953;SDS011;14508;50.924;11.600;2023-06-26T04:03:46;11.93;;;7.00;;
26953;SDS011;14508;50.924;11.600;2023-06-26T04:06:15;14.15;;;8.13;;
26953;SDS011;14508;50.924;11.600;2023-06-26T04:08:46;12.40;;;6.93;;
26953;SDS011;14508;50.924;11.600;2023-06-26T04:11:15;11.60;;;7.82;;
26953;SDS011;14508;50.924;11.600;2023-06-26T04:13:46;14.40;;;7.22;;
26953;SDS011;14508;50.924;11.600;2023-06-26T04:16:18;11.85;;;7.47;;
26953;SDS011;14508;50.924;11.600;2023-06-26T04:18:50;13.05;;;7.97;;
26953;SDS011;14508;50.924;11.600;2023-06-26T04:21:19;10.38;;;6.82;;
26953;SDS011;14508;50.924;11.600;2023-06-26T04:23:50;13.25;;;8.18;;
26953;SDS011;14508;50.924;11.600;2023-06-26T04:26:26;18.73;;;8.07;;
26953;SDS011;14508;50.924;11.600;2023-06-26T04:28:55;12.27;;;8.05;;
26953;SDS011;14508;50.924;11.600;2023-06-26T04:31:27;14.15;;;7.80;;
26953;SDS011;14508;50.924;11.600;2023-06-26T04:33:59;13.50;;;8.52;;
26953;SDS011;14508;50.924;11.600;2023-06-26T04:36:38;13.70;;;7.70;;
26953;SDS011;14508;50.924;11.600;2023-06-26T04:39:17;12.82;;;7.72;;
26953;SDS011;14508;50.924;11.600;2023-06-26T04:41:46;32.22;;;8.85;;
26953;SDS011;14508;50.924;11.600;2023-06-26T04:44:21;11.77;;;8.27;;
26953;SDS011;14508;50.924;11.600;2023-06-26T04:46:53;15.15;;;7.50;;
26953;SDS011;14508;50.924;11.600;2023-06-26T04:49:22;12.02;;;7.32;;
26953;SDS011;14508;50.924;11.600;2023-06-26T04:51:58;11.48;;;7.90;;
26953;SDS011;14508;50.924;11.600;2023-06-26T04:54:27;14.55;;;8.02;;
26953;SDS011;14508;50.924;11.600;2023-06-26T04:56:56;11.40;;;7.43;;
26953;SDS011;14508;50.924;11.600;2023-06-26T04:59:26;13.82;;;7.70;;
26953;SDS011;14508;50.924;11.600;2023-06-26T05:01:56;11.63;;;7.38;;
26953;SDS011;14508;50.924;11.600;2023-06-26T05:04:32;12.68;;;8.15;;
26953;SDS011;14508;50.924;11.600;2023-06-26T05:07:06;11.65;;;7.90;;
26953;SDS011;14508;50.924;11.600;2023-06-26T05:09:38;13.75;;;8.57;;
26953;SDS011;14508;50.924;11.600;2023-06-26T05:12:10;19.80;;;8.52;;
26953;SDS011;14508;50.924;11.600;2023-06-26T05:14:39;11.10;;;7.72;;
26953;SDS011;14508;50.924;11.600;2023-06-26T05:17:10;11.43;;;8.13;;
26953;SDS011;14508;50.924;11.600;2023-06-26T05:19:46;12.63;;;7.93;;
26953;SDS011;14508;50.924;11.600;2023-06-26T05:22:17;13.55;;;8.25;;
26953;SDS011;14508;50.924;11.600;2023-06-26T05:24:52;16.35;;;7.97;;
26953;SDS011;14508;50.924;11.600;2023-06-26T05:27:27;11.85;;;7.88;;
26953;SDS011;14508;50.924;11.600;2023-06-26T05:29:59;11.00;;;7.40;;
26953;SDS011;14508;50.924;11.600;2023-06-26T05:32:30;15.43;;;8.32;;
26953;SDS011;14508;50.924;11.600;2023-06-26T05:35:02;14.80;;;8.50;;
26953;SDS011;14508;50.924;11.600;2023-06-26T05:37:35;13.95;;;8.20;;
26953;SDS011;14508;50.924;11.600;2023-06-26T05:40:07;15.65;;;7.90;;
26953;SDS011;14508;50.924;11.600;2023-06-26T05:42:39;11.40;;;7.95;;
26953;SDS011;14508;50.924;11.600;2023-06-26T05:45:14;13.02;;;7.97;;
26953;SDS011;14508;50.924;11.600;2023-06-26T05:47:45;15.38;;;8.30;;
26953;SDS011;14508;50.924;11.600;2023-06-26T05:50:16;15.18;;;8.05;;
26953;SDS011;14508;50.924;11.600;2023-06-26T05:52:46;14.05;;;8.45;;
26953;SDS011;14508;50.924;11.600;2023-06-26T05:55:18;16.13;;;8.75;;
26953;SDS011;14508;50.924;11.600;2023-06-26T05:57:53;12.07;;;7.90;;
26953;SDS011;14508;50.924;11.600;2023-06-26T06:00:24;12.85;;;8.38;;
26953;SDS011;14508;50.924;11.600;2023-06-26T06:02:57;15.00;;;9.63;;
26953;SDS011;14508;50.924;11.600;2023-06-26T06:05:30;15.77;;;8.18;;
26953;SDS011;14508;50.924;11.600;2023-06-26T06:08:00;14.52;;;9.27;;
26953;SDS011;14508;50.924;11.600;2023-06-26T06:10:29;17.58;;;8.00;;
26953;SDS011;14508;50.924;11.600;2023-06-26T06:12:58;21.50;;;9.55;;
26953;SDS011;14508;50.924;11.600;2023-06-26T06:15:28;13.63;;;8.80;;
26953;SDS011;14508;50.924;11.600;2023-06-26T06:18:00;10.68;;;8.13;;
26953;SDS011;14508;50.924;11.600;2023-06-26T06:20:33;12.57;;;9.00;;
26953;SDS011;14508;50.924;11.600;2023-06-26T06:23:03;14.23;;;8.45;;
26953;SDS011;14508;50.924;11.600;2023-06-26T06:25:37;19.77;;;8.38;;
26953;SDS011;14508;50.924;11.600;2023-06-26T06:28:06;10.95;;;8.27;;
26953;SDS011;14508;50.924;11.600;2023-06-26T06:30:43;12.93;;;8.30;;
26953;SDS011;14508;50.924;11.600;2023-06-26T06:33:16;16.08;;;8.55;;
26953;SDS011;14508;50.924;11.600;2023-06-26T06:35:45;20.65;;;8.70;;
26953;SDS011;14508;50.924;11.600;2023-06-26T06:38:14;11.65;;;7.72;;
26953;SDS011;14508;50.924;11.600;2023-06-26T06:40:42;20.05;;;7.32;;
26953;SDS011;14508;50.924;11.600;2023-06-26T06:43:13;14.23;;;8.20;;
26953;SDS011;14508;50.924;11.600;2023-06-26T06:45:42;14.75;;;8.07;;
26953;SDS011;14508;50.924;11.600;2023-06-26T06:48:12;12.15;;;8.05;;
26953;SDS011;14508;50.924;11.600;2023-06-26T06:50:47;13.25;;;7.68;;
26953;SDS011;14508;50.924;11.600;2023-06-26T06:53:16;11.65;;;7.60;;
26953;SDS011;14508;50.924;11.600;2023-06-26T06:55:58;10.68;;;7.53;;
26953;SDS011;14508;50.924;11.600;2023-06-26T06:58:29;12.65;;;8.20;;
26953;SDS011;14508;50.924;11.600;2023-06-26T07:01:02;10.68;;;7.38;;
26953;SDS011;14508;50.924;11.600;2023-06-26T07:03:32;11.00;;;8.00;;
26953;SDS011;14508;50.924;11.600;2023-06-26T07:06:03;12.50;;;8.20;;
26953;SDS011;14508;50.924;11.600;2023-06-26T07:08:34;15.32;;;7.65;;
26953;SDS011;14508;50.924;11.600;2023-06-26T07:11:08;10.50;;;7.30;;
26953;SDS011;14508;50.924;11.600;2023-06-26T07:13:37;10.60;;;7.43;;
26953;SDS011;14508;50.924;11.600;2023-06-26T07:16:07;15.43;;;7.90;;
26953;SDS011;14508;50.924;11.600;2023-06-26T07:18:38;12.43;;;7.75;;
26953;SDS011;14508;50.924;11.600;2023-06-26T07:21:11;12.63;;;7.25;;
26953;SDS011;14508;50.924;11.600;2023-06-26T07:23:40;10.82;;;7.22;;
26953;SDS011;14508;50.924;11.600;2023-06-26T07:26:08;9.98;;;7.50;;
26953;SDS011;14508;50.924;11.600;2023-06-26T07:28:40;10.82;;;7.75;;
26953;SDS011;14508;50.924;11.600;2023-06-26T07:31:10;12.55;;;7.20;;
26953;SDS011;14508;50.924;11.600;2023-06-26T07:33:42;10.02;;;6.95;;
26953;SDS011;14508;50.924;11.600;2023-06-26T07:36:12;11.00;;;8.38;;
26953;SDS011;14508;50.924;11.600;2023-06-26T07:41:18;9.27;;;6.55;;
26953;SDS011;14508;50.924;11.600;2023-06-26T07:43:51;9.70;;;7.13;;
26953;SDS011;14508;50.924;11.600;2023-06-26T07:46:20;10.90;;;7.32;;
26953;SDS011;14508;50.924;11.600;2023-06-26T07:48:49;11.02;;;7.22;;
26953;SDS011;14508;50.924;11.600;2023-06-26T07:51:21;10.90;;;6.68;;
26953;SDS011;14508;50.924;11.600;2023-06-26T07:53:51;13.40;;;7.15;;
26953;SDS011;14508;50.924;11.600;2023-06-26T07:56:20;10.35;;;7.60;;
26953;SDS011;14508;50.924;11.600;2023-06-26T07:58:52;13.07;;;6.70;;
26953;SDS011;14508;50.924;11.600;2023-06-26T08:01:25;10.65;;;6.88;;
26953;SDS011;14508;50.924;11.600;2023-06-26T08:03:54;10.38;;;5.95;;
26953;SDS011;14508;50.924;11.600;2023-06-26T08:06:30;9.38;;;7.00;;
26953;SDS011;14508;50.924;11.600;2023-06-26T08:09:05;8.65;;;6.07;;
26953;SDS011;14508;50.924;11.600;2023-06-26T08:11:37;7.60;;;6.43;;
26953;SDS011;14508;50.924;11.600;2023-06-26T08:14:06;10.88;;;6.72;;
26953;SDS011;14508;50.924;11.600;2023-06-26T08:16:37;10.20;;;6.93;;
26953;SDS011;14508;50.924;11.600;2023-06-26T08:19:06;9.55;;;6.93;;
26953;SDS011;14508;50.924;11.600;2023-06-26T08:21:41;10.32;;;6.78;;
26953;SDS011;14508;50.924;11.600;2023-06-26T08:24:10;10.85;;;6.60;;
26953;SDS011;14508;50.924;11.600;2023-06-26T08:26:42;11.40;;;6.28;;
26953;SDS011;14508;50.924;11.600;2023-06-26T08:29:15;9.35;;;6.32;;
26953;SDS011;14508;50.924;11.600;2023-06-26T08:31:44;11.40;;;6.72;;
26953;SDS011;14508;50.924;11.600;2023-06-26T08:34:13;8.23;;;5.93;;
26953;SDS011;14508;50.924;11.600;2023-06-26T08:36:43;7.72;;;6.10;;
26953;SDS011;14508;50.924;11.600;2023-06-26T08:39:12;7.82;;;6.28;;
26953;SDS011;14508;50.924;11.600;2023-06-26T08:41:41;8.30;;;6.30;;
26953;SDS011;14508;50.924;11.600;2023-06-26T08:44:14;8.68;;;6.25;;
26953;SDS011;14508;50.924;11.600;2023-06-26T08:46:43;10.80;;;6.57;;
26953;SDS011;14508;50.924;11.600;2023-06-26T08:49:14;10.15;;;6.57;;
26953;SDS011;14508;50.924;11.600;2023-06-26T08:51:55;11.45;;;7.38;;
26953;SDS011;14508;50.924;11.600;2023-06-26T08:54:34;7.88;;;6.20;;
26953;SDS011;14508;50.924;11.600;2023-06-26T08:57:11;8.50;;;6.88;;
26953;SDS011;14508;50.924;11.600;2023-06-26T08:59:40;9.68;;;6.82;;
26953;SDS011;14508;50.924;11.600;2023-06-26T09:02:09;9.30;;;6.60;;
26953;SDS011;14508;50.924;11.600;2023-06-26T09:04:39;9.10;;;5.88;;
26953;SDS011;14508;50.924;11.600;2023-06-26T09:07:12;9.43;;;6.00;;
26953;SDS011;14508;50.924;11.600;2023-06-26T09:09:42;8.50;;;6.38;;
26953;SDS011;14508;50.924;11.600;2023-06-26T09:12:11;7.50;;;5.80;;
26953;SDS011;14508;50.924;11.600;2023-06-26T09:14:41;7.40;;;5.28;;
26953;SDS011;14508;50.924;11.600;2023-06-26T09:17:13;6.90;;;4.75;;
26953;SDS011;14508;50.924;11.600;2023-06-26T09:19:47;7.03;;;6.00;;
26953;SDS011;14508;50.924;11.600;2023-06-26T09:22:18;6.88;;;5.18;;
26953;SDS011;14508;50.924;11.600;2023-06-26T09:24:47;6.35;;;4.75;;
26953;SDS011;14508;50.924;11.600;2023-06-26T09:27:22;7.18;;;5.03;;
26953;SDS011;14508;50.924;11.600;2023-06-26T09:29:51;9.65;;;5.60;;
26953;SDS011;14508;50.924;11.600;2023-06-26T09:32:23;6.97;;;5.18;;
26953;SDS011;14508;50.924;11.600;2023-06-26T09:34:54;8.68;;;5.38;;
26953;SDS011;14508;50.924;11.600;2023-06-26T09:37:27;7.78;;;5.15;;
26953;SDS011;14508;50.924;11.600;2023-06-26T09:39:56;9.07;;;5.13;;
26953;SDS011;14508;50.924;11.600;2023-06-26T09:42:26;6.13;;;5.00;;
26953;SDS011;14508;50.924;11.600;2023-06-26T09:44:58;6.82;;;5.50;;
26953;SDS011;14508;50.924;11.600;2023-06-26T09:47:33;5.25;;;4.38;;
26953;SDS011;14508;50.924;11.600;2023-06-26T09:50:05;6.25;;;4.50;;
26953;SDS011;14508;50.924;11.600;2023-06-26T09:52:52;6.20;;;4.97;;
26953;SDS011;14508;50.924;11.600;2023-06-26T09:55:29;6.57;;;4.65;;
26953;SDS011;14508;50.924;11.600;2023-06-26T09:58:06;10.27;;;4.65;;
26953;SDS011;14508;50.924;11.600;2023-06-26T10:00:41;8.40;;;5.15;;
26953;SDS011;14508;50.924;11.600;2023-06-26T10:03:10;6.35;;;5.30;;
26953;SDS011;14508;50.924;11.600;2023-06-26T10:05:40;6.53;;;4.90;;
26953;SDS011;14508;50.924;11.600;2023-06-26T10:08:12;7.25;;;5.38;;
26953;SDS011;14508;50.924;11.600;2023-06-26T10:10:41;7.82;;;4.32;;
26953;SDS011;14508;50.924;11.600;2023-06-26T10:13:12;6.72;;;4.50;;
26953;SDS011;14508;50.924;11.600;2023-06-26T10:15:44;8.40;;;5.22;;
26953;SDS011;14508;50.924;11.600;2023-06-26T10:18:17;6.95;;;5.00;;
26953;SDS011;14508;50.924;11.600;2023-06-26T10:20:48;8.90;;;5.22;;
26953;SDS011;14508;50.924;11.600;2023-06-26T10:23:22;6.10;;;4.38;;
26953;SDS011;14508;50.924;11.600;2023-06-26T10:25:53;7.60;;;5.13;;
26953;SDS011;14508;50.924;11.600;2023-06-26T10:28:32;6.47;;;4.90;;
26953;SDS011;14508;50.924;11.600;2023-06-26T10:31:03;10.85;;;5.22;;
26953;SDS011;14508;50.924;11.600;2023-06-26T10:33:36;6.90;;;5.15;;
26953;SDS011;14508;50.924;11.600;2023-06-26T10:36:12;5.18;;;4.68;;
26953;SDS011;14508;50.924;11.600;2023-06-26T10:38:54;7.90;;;5.13;;
26953;SDS011;14508;50.924;11.600;2023-06-26T10:41:25;6.25;;;5.03;;
26953;SDS011;14508;50.924;11.600;2023-06-26T10:44:05;6.72;;;4.82;;
26953;SDS011;14508;50.924;11.600;2023-06-26T10:46:48;6.80;;;5.47;;
26953;SDS011;14508;50.924;11.600;2023-06-26T10:49:20;9.02;;;4.85;;
26953;SDS011;14508;50.924;11.600;2023-06-26T10:51:53;6.68;;;5.45;;
26953;SDS011;14508;50.924;11.600;2023-06-26T10:54:28;5.45;;;4.45;;
26953;SDS011;14508;50.924;11.600;2023-06-26T10:59:32;6.53;;;4.80;;
26953;SDS011;14508;50.924;11.600;2023-06-26T11:02:03;6.55;;;4.90;;
26953;SDS011;14508;50.924;11.600;2023-06-26T11:04:39;6.63;;;5.15;;
26953;SDS011;14508;50.924;11.600;2023-06-26T11:07:16;7.85;;;4.80;;
26953;SDS011;14508;50.924;11.600;2023-06-26T11:09:56;6.43;;;4.83;;
26953;SDS011;14508;50.924;11.600;2023-06-26T11:12:36;7.10;;;4.50;;
26953;SDS011;14508;50.924;11.600;2023-06-26T11:15:09;6.07;;;4.80;;
26953;SDS011;14508;50.924;11.600;2023-06-26T11:17:42;7.25;;;5.05;;
26953;SDS011;14508;50.924;11.600;2023-06-26T11:20:13;7.20;;;5.32;;
26953;SDS011;14508;50.924;11.600;2023-06-26T11:22:44;6.18;;;4.95;;
26953;SDS011;14508;50.924;11.600;2023-06-26T11:25:24;6.20;;;5.10;;
26953;SDS011;14508;50.924;11.600;2023-06-26T11:27:53;9.65;;;5.13;;
26953;SDS011;14508;50.924;11.600;2023-06-26T11:30:25;11.93;;;5.40;;
26953;SDS011;14508;50.924;11.600;2023-06-26T11:33:02;7.90;;;5.57;;
26953;SDS011;14508;50.924;11.600;2023-06-26T11:35:32;10.13;;;5.07;;
26953;SDS011;14508;50.924;11.600;2023-06-26T11:38:02;6.97;;;4.97;;
26953;SDS011;14508;50.924;11.600;2023-06-26T11:40:35;6.95;;;5.25;;
26953;SDS011;14508;50.924;11.600;2023-06-26T11:43:09;10.10;;;5.80;;
26953;SDS011;14508;50.924;11.600;2023-06-26T11:45:49;8.82;;;5.10;;
26953;SDS011;14508;50.924;11.600;2023-06-26T11:48:18;6.40;;;5.03;;
26953;SDS011;14508;50.924;11.600;2023-06-26T11:50:52;7.00;;;5.00;;
26953;SDS011;14508;50.924;11.600;2023-06-26T11:53:23;10.85;;;4.93;;
26953;SDS011;14508;50.924;11.600;2023-06-26T11:55:56;8.75;;;5.35;;
26953;SDS011;14508;50.924;11.600;2023-06-26T11:58:28;6.20;;;4.88;;
26953;SDS011;14508;50.924;11.600;2023-06-26T12:01:00;7.13;;;5.05;;
26953;SDS011;14508;50.924;11.600;2023-06-26T12:03:33;6.53;;;5.13;;
26953;SDS011;14508;50.924;11.600;2023-06-26T12:08:38;5.93;;;5.10;;
26953;SDS011;14508;50.924;11.600;2023-06-26T12:11:12;7.78;;;5.80;;
26953;SDS011;14508;50.924;11.600;2023-06-26T12:13:46;9.15;;;5.40;;
26953;SDS011;14508;50.924;11.600;2023-06-26T12:16:18;9.60;;;5.88;;
26953;SDS011;14508;50.924;11.600;2023-06-26T12:18:48;6.22;;;4.97;;
26953;SDS011;14508;50.924;11.600;2023-06-26T12:24:21;11.82;;;5.03;;
26953;SDS011;14508;50.924;11.600;2023-06-26T12:26:53;9.20;;;4.80;;
26953;SDS011;14508;50.924;11.600;2023-06-26T12:29:32;7.63;;;5.53;;
26953;SDS011;14508;50.924;11.600;2023-06-26T12:32:04;7.78;;;5.50;;
26953;SDS011;14508;50.924;11.600;2023-06-26T12:34:37;9.65;;;6.28;;
26953;SDS011;14508;50.924;11.600;2023-06-26T12:37:11;6.88;;;4.88;;
26953;SDS011;14508;50.924;11.600;2023-06-26T12:39:49;7.95;;;5.13;;
26953;SDS011;14508;50.924;11.600;2023-06-26T12:42:26;6.70;;;5.28;;
26953;SDS011;14508;50.924;11.600;2023-06-26T12:44:58;10.02;;;5.45;;
26953;SDS011;14508;50.924;11.600;2023-06-26T12:47:33;8.70;;;5.22;;
26953;SDS011;14508;50.924;11.600;2023-06-26T12:52:39;7.43;;;4.82;;
26953;SDS011;14508;50.924;11.600;2023-06-26T12:55:12;7.45;;;4.82;;
26953;SDS011;14508;50.924;11.600;2023-06-26T12:57:43;6.90;;;5.10;;
26953;SDS011;14508;50.924;11.600;2023-06-26T13:00:12;13.57;;;5.82;;
26953;SDS011;14508;50.924;11.600;2023-06-26T13:02:44;7.15;;;5.05;;
26953;SDS011;14508;50.924;11.600;2023-06-26T13:05:15;6.32;;;5.22;;
26953;SDS011;14508;50.924;11.600;2023-06-26T13:07:49;9.05;;;4.85;;
26953;SDS011;14508;50.924;11.600;2023-06-26T13:10:25;8.02;;;4.93;;
26953;SDS011;14508;50.924;11.600;2023-06-26T13:12:58;6.38;;;4.93;;
26953;SDS011;14508;50.924;11.600;2023-06-26T13:15:31;7.55;;;5.30;;
26953;SDS011;14508;50.924;11.600;2023-06-26T13:18:04;7.30;;;5.68;;
26953;SDS011;14508;50.924;11.600;2023-06-26T13:20:36;9.25;;;5.13;;
26953;SDS011;14508;50.924;11.600;2023-06-26T13:23:08;11.20;;;5.95;;
26953;SDS011;14508;50.924;11.600;2023-06-26T13:25:43;8.23;;;5.10;;
26953;SDS011;14508;50.924;11.600;2023-06-26T13:28:18;6.47;;;5.00;;
26953;SDS011;14508;50.924;11.600;2023-06-26T13:30:52;8.77;;;5.88;;
26953;SDS011;14508;50.924;11.600;2023-06-26T13:33:22;7.18;;;5.53;;
26953;SDS011;14508;50.924;11.600;2023-06-26T13:35:57;7.43;;;5.60;;
26953;SDS011;14508;50.924;11.600;2023-06-26T13:38:32;10.13;;;5.63;;
26953;SDS011;14508;50.924;11.600;2023-06-26T13:41:04;14.07;;;6.45;;
26953;SDS011;14508;50.924;11.600;2023-06-26T13:43:34;16.23;;;6.78;;
26953;SDS011;14508;50.924;11.600;2023-06-26T13:46:07;15.00;;;7.40;;
26953;SDS011;14508;50.924;11.600;2023-06-26T13:48:39;14.00;;;6.72;;
26953;SDS011;14508;50.924;11.600;2023-06-26T13:51:13;15.43;;;7.88;;
26953;SDS011;14508;50.924;11.600;2023-06-26T13:53:48;11.52;;;6.57;;
26953;SDS011;14508;50.924;11.600;2023-06-26T13:56:26;13.23;;;7.45;;
26953;SDS011;14508;50.924;11.600;2023-06-26T13:58:59;13.85;;;7.07;;
26953;SDS011;14508;50.924;11.600;2023-06-26T14:01:29;18.77;;;7.85;;
26953;SDS011;14508;50.924;11.600;2023-06-26T14:04:03;14.98;;;7.45;;
26953;SDS011;14508;50.924;11.600;2023-06-26T14:06:37;13.70;;;7.25;;
26953;SDS011;14508;50.924;11.600;2023-06-26T14:09:07;24.80;;;6.25;;
26953;SDS011;14508;50.924;11.600;2023-06-26T14:11:36;15.75;;;7.53;;
26953;SDS011;14508;50.924;11.600;2023-06-26T14:14:08;13.40;;;7.07;;
26953;SDS011;14508;50.924;11.600;2023-06-26T14:16:41;11.75;;;7.43;;
26953;SDS011;14508;50.924;11.600;2023-06-26T14:19:13;15.57;;;6.85;;
26953;SDS011;14508;50.924;11.600;2023-06-26T14:21:47;11.77;;;7.18;;
26953;SDS011;14508;50.924;11.600;2023-06-26T14:24:24;10.10;;;7.13;;
26953;SDS011;14508;50.924;11.600;2023-06-26T14:26:53;13.48;;;7.90;;
26953;SDS011;14508;50.924;11.600;2023-06-26T14:29:29;15.15;;;6.53;;
26953;SDS011;14508;50.924;11.600;2023-06-26T14:32:03;9.60;;;6.10;;
26953;SDS011;14508;50.924;11.600;2023-06-26T14:34:38;13.65;;;6.45;;
26953;SDS011;14508;50.924;11.600;2023-06-26T14:37:11;8.68;;;6.18;;
26953;SDS011;14508;50.924;11.600;2023-06-26T14:39:41;11.90;;;6.03;;
26953;SDS011;14508;50.924;11.600;2023-06-26T14:42:11;8.85;;;6.25;;
26953;SDS011;14508;50.924;11.600;2023-06-26T14:44:47;8.98;;;6.57;;
26953;SDS011;14508;50.924;11.600;2023-06-26T14:47:17;11.48;;;6.30;;
26953;SDS011;14508;50.924;11.600;2023-06-26T14:50:01;10.63;;;6.10;;
26953;SDS011;14508;50.924;11.600;2023-06-26T14:52:33;6.97;;;5.88;;
26953;SDS011;14508;50.924;11.600;2023-06-26T14:55:03;12.50;;;6.50;;
26953;SDS011;14508;50.924;11.600;2023-06-26T14:57:34;15.02;;;6.35;;
26953;SDS011;14508;50.924;11.600;2023-06-26T15:00:07;9.00;;;6.45;;
26953;SDS011;14508;50.924;11.600;2023-06-26T15:02:39;9.32;;;6.05;;
26953;SDS011;14508;50.924;11.600;2023-06-26T15:05:12;10.88;;;6.90;;
26953;SDS011;14508;50.924;11.600;2023-06-26T15:07:41;8.70;;;7.03;;
26953;SDS011;14508;50.924;11.600;2023-06-26T15:10:10;14.02;;;6.38;;
26953;SDS011;14508;50.924;11.600;2023-06-26T15:12:39;12.23;;;6.30;;